Aviation Digital Data Service (ADDS)

Output produced by METARs form (0435 UTC 26 April 2019)
found at http://www.aviationweather.gov/metar/data/
 
Forecast for: VTBU (RAYONG/U-TAPHAO , TH)
Text: TAF VTBU 252300Z 2600/2624 18008KT 9000 FEW020
Forecast period: 0000 to 1200 UTC 26 April 2019
Forecast type: FROM: standard forecast or significant change
Winds: from the S (180 degrees) at 9 MPH (8 knots; 4.1 m/s)
Visibility: 6 miles (9 km)
Ceiling: at least 12,000 feet AGL
Clouds: few clouds at 2000 feet AGL
Weather: no significant weather forecast for this period
Text: TEMPO 2606/2612 FEW020CB
Forecast period: 0600 to 1200 UTC 26 April 2019
Forecast type: TEMPORARY: The following changes expected for less than half the time period
Visibility: missing
Ceiling: at least 12,000 feet AGL
Clouds: few clouds at 2000 feet AGL
Weather: no significant weather forecast for this period
Text: BECMG 2612/2614 22006KT
Forecast period: 1200 UTC 26 April 2019 to 0000 UTC 27 April 2019
Forecast type: BECOMING: Conditions expected to become as follows by 1400 UTC 26 April 2019
Winds: from the SW (220 degrees) at 7 MPH (6 knots; 3.1 m/s)
Visibility: 6 miles (9 km)
Ceiling: at least 12,000 feet AGL
Clouds: few clouds at 2000 feet AGL
Weather: no significant weather forecast for this period